Time;durP1;ratioP1;P1;durP2;ratioP2;P2;SDS_P1;SDS_P2;PMS_P1;PMS_P2;Temp;Humidity;BMP_temperature;BMP_pressure;BME280_temperature;BME280_humidity;BME280_pressure;Samples;Min_cycle;Max_cycle;Signal;HPM_P1;HPM_P2
2023/10/25 00:00:20;;;;;;;2.80;2.07;;;;;;;;;;4925331;29;20829;-85
2023/10/25 00:02:48;;;;;;;9.13;3.87;;;;;;;;;;4924479;29;20228;-85
2023/10/25 00:05:18;;;;;;;5.30;2.83;;;;;;;;;;4939969;29;20216;-85
2023/10/25 00:07:50;;;;;;;3.00;2.17;;;;;;;;;;4945556;29;20664;-85
2023/10/25 00:10:22;;;;;;;7.50;2.40;;;;;;;;;;4945262;29;20294;-85
2023/10/25 00:12:54;;;;;;;3.37;2.13;;;;;;;;;;4944817;29;20265;-85
2023/10/25 00:15:24;;;;;;;10.47;2.17;;;;;;;;;;4944702;29;20233;-84
2023/10/25 00:17:54;;;;;;;3.33;2.40;;;;;;;;;;4945002;29;20201;-85
2023/10/25 00:20:26;;;;;;;4.57;2.40;;;;;;;;;;4944911;29;20240;-85
2023/10/25 00:22:56;;;;;;;4.33;2.80;;;;;;;;;;4944303;29;20217;-83
2023/10/25 00:25:26;;;;;;;4.00;2.07;;;;;;;;;;4944188;29;20240;-84
2023/10/25 00:27:55;;;;;;;5.27;2.70;;;;;;;;;;4938145;29;20208;-84
2023/10/25 00:30:25;;;;;;;3.67;2.43;;;;;;;;;;4946843;29;20207;-84
2023/10/25 00:32:59;;;;;;;2.77;2.30;;;;;;;;;;4918044;29;20205;-85
2023/10/25 00:35:32;;;;;;;2.03;1.93;;;;;;;;;;4912032;29;20259;-85
2023/10/25 00:38:02;;;;;;;2.47;1.77;;;;;;;;;;4910282;29;20210;-84
2023/10/25 00:40:35;;;;;;;3.07;2.17;;;;;;;;;;4910529;29;20228;-84
2023/10/25 00:43:20;;;;;;;2.73;2.50;;;;;;;;;;4905545;29;20220;-83
2023/10/25 00:46:03;;;;;;;2.37;2.20;;;;;;;;;;4906182;29;20206;-85
2023/10/25 00:48:38;;;;;;;2.13;1.97;;;;;;;;;;4905771;29;20290;-85
2023/10/25 00:51:09;;;;;;;3.80;2.10;;;;;;;;;;4910535;29;20282;-84
2023/10/25 00:53:42;;;;;;;5.40;2.00;;;;;;;;;;4927528;29;20303;-85
2023/10/25 00:56:15;;;;;;;2.33;1.70;;;;;;;;;;4932051;29;20222;-83
2023/10/25 00:58:45;;;;;;;4.33;2.37;;;;;;;;;;4922245;29;20208;-86
2023/10/25 01:01:20;;;;;;;4.37;2.07;;;;;;;;;;4934681;29;20226;-84
2023/10/25 01:03:52;;;;;;;2.30;2.10;;;;;;;;;;4929405;29;20507;-85
2023/10/25 01:06:21;;;;;;;2.17;2.07;;;;;;;;;;4932208;29;20281;-86
2023/10/25 01:08:53;;;;;;;3.93;1.93;;;;;;;;;;4943255;29;20279;-84
2023/10/25 01:11:22;;;;;;;5.03;2.00;;;;;;;;;;4947320;29;20204;-84
2023/10/25 01:13:52;;;;;;;10.97;1.83;;;;;;;;;;4947742;29;20208;-84
2023/10/25 01:16:25;;;;;;;4.70;2.40;;;;;;;;;;4946114;29;20229;-85
2023/10/25 01:18:58;;;;;;;3.90;1.97;;;;;;;;;;4949171;29;20235;-85
2023/10/25 01:21:30;;;;;;;3.27;1.80;;;;;;;;;;4950150;29;20230;-82
2023/10/25 01:24:02;;;;;;;4.50;2.30;;;;;;;;;;4948793;29;20780;-83
2023/10/25 01:26:34;;;;;;;3.80;2.47;;;;;;;;;;4945873;29;20203;-85
2023/10/25 01:29:04;;;;;;;1.60;1.50;;;;;;;;;;4946185;29;20217;-84
2023/10/25 01:31:34;;;;;;;9.83;2.37;;;;;;;;;;4945306;29;20216;-85
2023/10/25 01:34:09;;;;;;;6.73;2.03;;;;;;;;;;4944171;29;20208;-85
2023/10/25 01:36:38;;;;;;;3.60;1.90;;;;;;;;;;4945192;29;20200;-84
2023/10/25 01:39:09;;;;;;;3.90;2.33;;;;;;;;;;4945629;29;20230;-86
2023/10/25 01:41:40;;;;;;;3.03;2.10;;;;;;;;;;4945948;29;20290;-85
2023/10/25 01:44:10;;;;;;;6.57;2.40;;;;;;;;;;4945265;29;20198;-84
2023/10/25 01:46:40;;;;;;;3.80;2.00;;;;;;;;;;4945060;29;20219;-86
2023/10/25 01:49:12;;;;;;;2.80;1.90;;;;;;;;;;4944821;29;20197;-85
2023/10/25 01:51:43;;;;;;;3.37;1.90;;;;;;;;;;4944688;29;20212;-85
2023/10/25 01:54:20;;;;;;;11.23;2.13;;;;;;;;;;4951009;29;20206;-85
2023/10/25 01:56:57;;;;;;;2.30;2.20;;;;;;;;;;4954773;29;20184;-86
2023/10/25 01:59:32;;;;;;;4.83;2.13;;;;;;;;;;4958231;29;20200;-85
2023/10/25 02:02:04;;;;;;;3.20;2.73;;;;;;;;;;4954702;29;20230;-84
2023/10/25 02:04:53;;;;;;;11.43;1.87;;;;;;;;;;4952602;29;20209;-85
2023/10/25 02:07:26;;;;;;;1.53;1.43;;;;;;;;;;4935778;29;20216;-85
2023/10/25 02:09:56;;;;;;;5.30;2.00;;;;;;;;;;4930014;29;20247;-85
2023/10/25 02:12:27;;;;;;;5.97;1.90;;;;;;;;;;4919612;29;20190;-83
2023/10/25 02:14:57;;;;;;;6.80;2.73;;;;;;;;;;4917341;29;20210;-85
2023/10/25 02:17:27;;;;;;;4.47;1.40;;;;;;;;;;4916822;29;20237;-85
2023/10/25 02:19:59;;;;;;;14.43;2.13;;;;;;;;;;4916218;29;20215;-85
2023/10/25 02:22:30;;;;;;;9.83;2.10;;;;;;;;;;4916949;29;20242;-85
2023/10/25 02:25:02;;;;;;;2.73;2.53;;;;;;;;;;4918499;29;20644;-86
2023/10/25 02:27:30;;;;;;;3.57;2.20;;;;;;;;;;4916701;29;20189;-86
2023/10/25 02:29:59;;;;;;;7.67;3.10;;;;;;;;;;4918580;29;20639;-86
2023/10/25 02:32:32;;;;;;;5.90;1.97;;;;;;;;;;4917497;29;20695;-85
2023/10/25 02:35:03;;;;;;;4.57;2.50;;;;;;;;;;4916357;29;20239;-84
2023/10/25 02:37:34;;;;;;;4.47;1.87;;;;;;;;;;4899245;29;20224;-85
2023/10/25 02:40:04;;;;;;;3.03;2.10;;;;;;;;;;4898945;29;20213;-84
2023/10/25 02:42:32;;;;;;;5.40;2.07;;;;;;;;;;4897607;29;20239;-86
2023/10/25 02:45:02;;;;;;;3.90;2.00;;;;;;;;;;4897241;29;20198;-85
2023/10/25 02:47:32;;;;;;;5.27;2.17;;;;;;;;;;4903681;29;20287;-85
2023/10/25 02:50:02;;;;;;;5.28;2.70;;;;;;;;;;4926995;29;20445;-84
2023/10/25 02:52:46;;;;;;;3.47;2.00;;;;;;;;;;4906575;29;20303;-84
2023/10/25 02:55:22;;;;;;;8.43;2.50;;;;;;;;;;4905658;29;20222;-85
2023/10/25 02:57:53;;;;;;;6.07;1.90;;;;;;;;;;4915526;29;20213;-85
2023/10/25 03:00:29;;;;;;;5.97;2.40;;;;;;;;;;4934228;29;20211;-86
2023/10/25 03:03:00;;;;;;;6.53;2.70;;;;;;;;;;4934505;29;20240;-85
2023/10/25 03:05:30;;;;;;;8.93;2.30;;;;;;;;;;4936388;29;20220;-85
2023/10/25 03:08:01;;;;;;;7.93;2.63;;;;;;;;;;4936153;29;20321;-86
2023/10/25 03:10:36;;;;;;;6.33;2.73;;;;;;;;;;4945269;29;20194;-84
2023/10/25 03:13:04;;;;;;;3.73;2.33;;;;;;;;;;4942164;29;20191;-85
2023/10/25 03:15:33;;;;;;;5.93;2.47;;;;;;;;;;4935466;29;20204;-85
2023/10/25 03:18:03;;;;;;;11.57;2.70;;;;;;;;;;4917738;29;20943;-83
2023/10/25 03:20:33;;;;;;;5.00;2.93;;;;;;;;;;4935186;29;20203;-85
2023/10/25 03:23:03;;;;;;;5.03;2.80;;;;;;;;;;4935841;29;20231;-85
2023/10/25 03:25:37;;;;;;;12.07;2.50;;;;;;;;;;4941339;29;20230;-84
2023/10/25 03:28:07;;;;;;;12.53;2.57;;;;;;;;;;4941222;29;20258;-85
2023/10/25 03:30:36;;;;;;;13.60;2.50;;;;;;;;;;4954810;29;20244;-85
2023/10/25 03:33:06;;;;;;;3.93;2.37;;;;;;;;;;4955515;28;20298;-85
2023/10/25 03:35:35;;;;;;;6.63;2.60;;;;;;;;;;4936127;29;20685;-84
2023/10/25 03:38:05;;;;;;;7.67;2.93;;;;;;;;;;4935930;29;20862;-85
2023/10/25 03:40:34;;;;;;;6.77;2.97;;;;;;;;;;4938617;29;20214;-86
2023/10/25 03:43:04;;;;;;;5.67;2.60;;;;;;;;;;4935283;29;20717;-85
2023/10/25 03:45:33;;;;;;;5.77;2.03;;;;;;;;;;4936142;29;20217;-84
2023/10/25 03:48:06;;;;;;;7.43;3.30;;;;;;;;;;4934913;29;20576;-86
2023/10/25 03:50:34;;;;;;;5.23;3.23;;;;;;;;;;4934836;29;20218;-84
2023/10/25 03:53:02;;;;;;;5.57;2.40;;;;;;;;;;4934920;29;20199;-84
2023/10/25 03:55:36;;;;;;;11.43;3.13;;;;;;;;;;4936384;29;20263;-85
2023/10/25 03:58:12;;;;;;;14.00;2.97;;;;;;;;;;4938282;29;20294;-85
2023/10/25 04:00:44;;;;;;;5.67;2.30;;;;;;;;;;4937662;29;20198;-85
2023/10/25 04:03:14;;;;;;;9.93;3.07;;;;;;;;;;4945889;29;20231;-86
2023/10/25 04:05:45;;;;;;;6.33;2.97;;;;;;;;;;4950545;29;20192;-86
2023/10/25 04:08:20;;;;;;;3.90;2.90;;;;;;;;;;4944311;29;20244;-83
2023/10/25 04:10:56;;;;;;;3.30;2.70;;;;;;;;;;4948357;29;20243;-85
2023/10/25 04:13:32;;;;;;;7.10;3.30;;;;;;;;;;4948794;29;20199;-85
2023/10/25 04:16:03;;;;;;;7.73;3.00;;;;;;;;;;4953017;29;20301;-84
2023/10/25 04:18:37;;;;;;;6.27;3.27;;;;;;;;;;4952288;29;20207;-85
2023/10/25 04:21:13;;;;;;;3.90;3.17;;;;;;;;;;4957927;28;20187;-83
2023/10/25 04:23:41;;;;;;;9.20;3.30;;;;;;;;;;4957191;28;20227;-85
2023/10/25 04:26:11;;;;;;;6.40;3.33;;;;;;;;;;4957471;28;20206;-85
2023/10/25 04:28:41;;;;;;;8.77;3.90;;;;;;;;;;4958102;28;20195;-84
2023/10/25 04:31:12;;;;;;;7.20;2.80;;;;;;;;;;4957497;28;20183;-85
2023/10/25 04:33:40;;;;;;;5.63;2.77;;;;;;;;;;4956251;29;20218;-86
2023/10/25 04:36:09;;;;;;;6.50;2.70;;;;;;;;;;4943967;29;20206;-85
2023/10/25 04:38:40;;;;;;;6.47;2.57;;;;;;;;;;4937436;29;20285;-84
2023/10/25 04:41:11;;;;;;;18.63;4.03;;;;;;;;;;4935549;29;20226;-84
2023/10/25 04:43:44;;;;;;;6.40;2.97;;;;;;;;;;4937281;29;20232;-85
2023/10/25 04:46:17;;;;;;;6.00;3.10;;;;;;;;;;4940071;29;20210;-85
2023/10/25 04:48:45;;;;;;;7.27;2.93;;;;;;;;;;4940598;29;20194;-84
2023/10/25 04:51:18;;;;;;;4.13;3.27;;;;;;;;;;4940086;29;20700;-84
2023/10/25 04:53:49;;;;;;;18.47;3.73;;;;;;;;;;4939339;29;20200;-86
2023/10/25 04:56:19;;;;;;;5.53;2.53;;;;;;;;;;4942865;29;20214;-84
2023/10/25 04:58:53;;;;;;;2.53;2.33;;;;;;;;;;4949009;29;20282;-83
2023/10/25 05:01:23;;;;;;;5.27;3.30;;;;;;;;;;4943732;29;20652;-84
2023/10/25 05:03:51;;;;;;;5.97;3.10;;;;;;;;;;4943304;29;20230;-85
2023/10/25 05:06:26;;;;;;;5.73;3.03;;;;;;;;;;4945240;29;20207;-85
2023/10/25 05:08:57;;;;;;;6.23;3.20;;;;;;;;;;4938881;29;20286;-84
2023/10/25 05:11:30;;;;;;;7.13;3.57;;;;;;;;;;4939448;29;20218;-85
2023/10/25 05:13:59;;;;;;;8.93;3.97;;;;;;;;;;4941503;29;20220;-84
2023/10/25 05:16:28;;;;;;;3.33;2.93;;;;;;;;;;4939281;29;20224;-85
2023/10/25 05:18:58;;;;;;;11.03;3.20;;;;;;;;;;4940181;29;20212;-85
2023/10/25 05:21:35;;;;;;;5.77;2.90;;;;;;;;;;4939817;29;20210;-84
2023/10/25 05:24:04;;;;;;;13.83;3.87;;;;;;;;;;4939830;29;20237;-84
2023/10/25 05:26:33;;;;;;;7.63;3.47;;;;;;;;;;4938327;29;20549;-84
2023/10/25 05:29:03;;;;;;;7.80;4.00;;;;;;;;;;4941531;29;20211;-84
2023/10/25 05:31:33;;;;;;;10.00;3.40;;;;;;;;;;4939561;29;20200;-84
2023/10/25 05:34:04;;;;;;;9.07;3.40;;;;;;;;;;4940060;29;20204;-85
2023/10/25 05:36:32;;;;;;;13.47;3.13;;;;;;;;;;4939961;29;20677;-85
2023/10/25 05:39:03;;;;;;;16.77;5.17;;;;;;;;;;4940825;29;20231;-87
2023/10/25 05:41:36;;;;;;;9.50;2.80;;;;;;;;;;4943339;29;20215;-84
2023/10/25 05:44:14;;;;;;;5.53;2.97;;;;;;;;;;4944288;29;20254;-85
2023/10/25 05:46:44;;;;;;;2.47;2.23;;;;;;;;;;4944479;29;20219;-84
2023/10/25 05:49:15;;;;;;;5.87;2.67;;;;;;;;;;4953305;29;20191;-85
2023/10/25 05:51:46;;;;;;;9.17;2.97;;;;;;;;;;4950848;29;20202;-85
2023/10/25 05:54:16;;;;;;;6.80;3.30;;;;;;;;;;4939985;29;20197;-84
2023/10/25 05:56:46;;;;;;;17.00;3.13;;;;;;;;;;4936006;29;20200;-84
2023/10/25 05:59:16;;;;;;;5.27;2.67;;;;;;;;;;4935529;29;20208;-84
2023/10/25 06:01:50;;;;;;;5.80;2.47;;;;;;;;;;4936353;29;20231;-86
2023/10/25 06:04:23;;;;;;;9.15;2.53;;;;;;;;;;4936263;29;20204;-84
2023/10/25 06:06:54;;;;;;;6.68;3.20;;;;;;;;;;4936376;29;20213;-83
2023/10/25 06:09:25;;;;;;;8.68;3.13;;;;;;;;;;4934146;29;20214;-84
2023/10/25 06:11:54;;;;;;;4.63;3.05;;;;;;;;;;4935713;29;20646;-84
2023/10/25 06:14:28;;;;;;;9.07;2.90;;;;;;;;;;4936363;29;20211;-84
2023/10/25 06:16:58;;;;;;;2.78;2.58;;;;;;;;;;4936090;29;20684;-85
2023/10/25 06:19:29;;;;;;;11.25;3.88;;;;;;;;;;4920070;29;20242;-85
2023/10/25 06:22:01;;;;;;;8.45;3.33;;;;;;;;;;4926795;29;20199;-84
2023/10/25 06:24:32;;;;;;;9.77;3.28;;;;;;;;;;4929418;29;20234;-84
2023/10/25 06:27:02;;;;;;;12.15;3.50;;;;;;;;;;4944580;29;20304;-84
2023/10/25 06:32:21;;;;;;;11.23;3.92;;;;;;;;;;4977011;28;20238;-85
2023/10/25 06:34:51;;;;;;;7.07;3.08;;;;;;;;;;4962072;29;20219;-85
2023/10/25 06:37:23;;;;;;;12.40;4.32;;;;;;;;;;4951466;29;20259;-85
2023/10/25 06:39:53;;;;;;;8.32;3.70;;;;;;;;;;4950180;29;20278;-85
2023/10/25 06:42:24;;;;;;;13.82;4.68;;;;;;;;;;4938490;29;20241;-84
2023/10/25 06:44:59;;;;;;;11.25;3.60;;;;;;;;;;4943907;29;20284;-84
2023/10/25 06:47:31;;;;;;;11.32;3.40;;;;;;;;;;4941636;29;20210;-84
2023/10/25 06:50:00;;;;;;;8.60;3.63;;;;;;;;;;4939454;29;20240;-86
2023/10/25 06:52:32;;;;;;;7.45;4.00;;;;;;;;;;4942240;29;20218;-85
2023/10/25 06:55:03;;;;;;;4.60;3.05;;;;;;;;;;4937740;29;20597;-84
2023/10/25 06:57:36;;;;;;;8.45;3.67;;;;;;;;;;4943748;29;20218;-83
2023/10/25 07:00:08;;;;;;;9.07;3.88;;;;;;;;;;4954988;29;20657;-84
2023/10/25 07:02:51;;;;;;;16.23;4.18;;;;;;;;;;4941209;28;20317;-84
2023/10/25 07:05:27;;;;;;;21.40;3.63;;;;;;;;;;4944711;29;20296;-84
2023/10/25 07:07:59;;;;;;;6.72;2.95;;;;;;;;;;4945143;28;20205;-85
2023/10/25 07:10:30;;;;;;;17.83;3.30;;;;;;;;;;4943765;29;20206;-85
2023/10/25 07:13:06;;;;;;;11.88;3.08;;;;;;;;;;4952397;29;20224;-84
2023/10/25 07:15:38;;;;;;;16.23;4.05;;;;;;;;;;4943614;29;20567;-84
2023/10/25 07:18:09;;;;;;;5.28;2.92;;;;;;;;;;4942243;29;20309;-84
2023/10/25 07:20:44;;;;;;;18.35;3.40;;;;;;;;;;4945402;29;20194;-84
2023/10/25 07:23:14;;;;;;;10.60;3.53;;;;;;;;;;4947376;29;20233;-84
2023/10/25 07:25:46;;;;;;;6.65;3.88;;;;;;;;;;4948100;29;20570;-84
2023/10/25 07:28:14;;;;;;;6.38;3.20;;;;;;;;;;4941072;29;20205;-86
2023/10/25 07:30:50;;;;;;;8.80;3.90;;;;;;;;;;4937122;29;20343;-84
2023/10/25 07:33:24;;;;;;;6.22;3.30;;;;;;;;;;4936516;29;20247;-84
2023/10/25 07:35:54;;;;;;;14.35;2.97;;;;;;;;;;4940887;29;20196;-84
2023/10/25 07:38:24;;;;;;;4.10;3.08;;;;;;;;;;4956273;28;20299;-83
2023/10/25 07:40:58;;;;;;;6.97;2.85;;;;;;;;;;4955441;29;20595;-85
2023/10/25 07:43:30;;;;;;;14.52;3.25;;;;;;;;;;4953795;29;20248;-84
2023/10/25 07:46:00;;;;;;;3.22;2.67;;;;;;;;;;4955595;29;20281;-84
2023/10/25 07:48:45;;;;;;;11.15;3.15;;;;;;;;;;4960030;29;20194;-84
2023/10/25 07:51:23;;;;;;;5.05;2.88;;;;;;;;;;4961544;29;20205;-85
2023/10/25 07:57:06;;;;;;;8.05;2.70;;;;;;;;;;4960510;29;20215;-86
2023/10/25 07:59:37;;;;;;;8.52;3.33;;;;;;;;;;4954757;29;20713;-85
2023/10/25 08:02:11;;;;;;;9.90;3.50;;;;;;;;;;4956059;28;20258;-84
2023/10/25 08:04:43;;;;;;;11.10;3.20;;;;;;;;;;4954600;29;20241;-83
2023/10/25 08:07:14;;;;;;;8.85;3.50;;;;;;;;;;4957076;29;20214;-83
2023/10/25 08:09:44;;;;;;;6.28;3.15;;;;;;;;;;4955100;29;20202;-82
2023/10/25 08:12:12;;;;;;;8.82;3.33;;;;;;;;;;4955229;29;20289;-84
2023/10/25 08:14:40;;;;;;;11.52;3.17;;;;;;;;;;4956210;29;20211;-84
2023/10/25 08:17:08;;;;;;;15.40;3.80;;;;;;;;;;4955329;29;20204;-84
2023/10/25 08:19:36;;;;;;;6.75;2.95;;;;;;;;;;4956539;28;20292;-85
2023/10/25 08:22:06;;;;;;;14.02;3.10;;;;;;;;;;4955196;29;20196;-85
2023/10/25 08:24:34;;;;;;;8.60;3.47;;;;;;;;;;4955929;29;20304;-85
2023/10/25 08:27:01;;;;;;;8.65;3.22;;;;;;;;;;4955912;29;20210;-86
2023/10/25 08:29:32;;;;;;;8.90;3.60;;;;;;;;;;4956316;29;20289;-83
2023/10/25 08:32:04;;;;;;;9.30;3.08;;;;;;;;;;4959091;29;20245;-83
2023/10/25 08:34:35;;;;;;;10.80;3.75;;;;;;;;;;4955819;29;20218;-86
2023/10/25 08:37:02;;;;;;;11.18;3.65;;;;;;;;;;4955829;29;20355;-85
2023/10/25 08:39:36;;;;;;;5.90;3.47;;;;;;;;;;4955389;29;20688;-85
2023/10/25 08:42:10;;;;;;;10.70;3.65;;;;;;;;;;4956285;29;20214;-85
2023/10/25 08:44:49;;;;;;;14.57;3.30;;;;;;;;;;4955089;29;20251;-84
2023/10/25 08:47:25;;;;;;;17.02;3.92;;;;;;;;;;4956332;29;20669;-84
2023/10/25 08:50:07;;;;;;;17.75;3.15;;;;;;;;;;4957144;29;20253;-84
2023/10/25 08:52:39;;;;;;;8.70;3.13;;;;;;;;;;4957863;28;20209;-85
2023/10/25 08:55:23;;;;;;;9.77;3.33;;;;;;;;;;4957244;29;20282;-84
2023/10/25 08:57:58;;;;;;;17.73;2.97;;;;;;;;;;4956703;29;20206;-85
2023/10/25 09:00:32;;;;;;;17.95;3.40;;;;;;;;;;4958267;29;20264;-85
2023/10/25 09:03:03;;;;;;;12.20;3.20;;;;;;;;;;4956360;28;20223;-85
2023/10/25 09:05:46;;;;;;;6.47;4.57;;;;;;;;;;4957356;29;20203;-86
2023/10/25 09:08:16;;;;;;;21.38;3.88;;;;;;;;;;4956161;29;20246;-86
2023/10/25 09:10:54;;;;;;;8.15;3.90;;;;;;;;;;4956719;29;20207;-84
2023/10/25 09:13:25;;;;;;;14.40;3.58;;;;;;;;;;4955036;29;20265;-84
2023/10/25 09:15:54;;;;;;;11.98;3.05;;;;;;;;;;4958241;29;20217;-85
2023/10/25 09:18:24;;;;;;;5.70;3.55;;;;;;;;;;4957798;29;20678;-86
2023/10/25 09:20:53;;;;;;;7.32;3.88;;;;;;;;;;4957103;29;20278;-86
2023/10/25 09:23:28;;;;;;;26.90;4.75;;;;;;;;;;4974646;28;20214;-85
2023/10/25 09:26:04;;;;;;;10.75;3.65;;;;;;;;;;4977126;28;20237;-85
2023/10/25 09:28:37;;;;;;;7.32;3.40;;;;;;;;;;4976136;28;20187;-85
2023/10/25 09:31:27;;;;;;;8.80;2.75;;;;;;;;;;4972387;28;20245;-86
2023/10/25 09:34:08;;;;;;;8.02;2.17;;;;;;;;;;4963122;29;20191;-85
2023/10/25 09:36:42;;;;;;;29.95;3.50;;;;;;;;;;4968505;29;20266;-83
2023/10/25 09:39:16;;;;;;;24.08;3.55;;;;;;;;;;4965595;29;20207;-84
2023/10/25 09:41:52;;;;;;;24.90;3.75;;;;;;;;;;4958109;29;20202;-83
2023/10/25 09:44:21;;;;;;;20.85;3.75;;;;;;;;;;4958564;29;20238;-84
2023/10/25 09:46:55;;;;;;;17.35;3.72;;;;;;;;;;4959035;29;20214;-85
2023/10/25 09:49:26;;;;;;;21.27;3.03;;;;;;;;;;4958905;29;20195;-84
2023/10/25 09:52:05;;;;;;;25.58;3.72;;;;;;;;;;4957650;29;20203;-84
2023/10/25 09:54:34;;;;;;;15.10;2.58;;;;;;;;;;4957909;29;20214;-85
2023/10/25 09:57:07;;;;;;;16.52;2.17;;;;;;;;;;4956981;29;20199;-84
2023/10/25 09:59:40;;;;;;;19.73;3.22;;;;;;;;;;4957146;29;20210;-86
2023/10/25 10:02:13;;;;;;;16.85;2.58;;;;;;;;;;4958157;28;20238;-86
2023/10/25 10:04:48;;;;;;;19.75;3.70;;;;;;;;;;4958078;29;20741;-85
2023/10/25 10:07:20;;;;;;;15.35;3.03;;;;;;;;;;4957579;29;20664;-86
2023/10/25 10:09:54;;;;;;;18.45;3.25;;;;;;;;;;4956559;29;20203;-87
2023/10/25 10:12:28;;;;;;;8.45;2.17;;;;;;;;;;4957029;29;20199;-85
2023/10/25 10:15:01;;;;;;;16.67;3.42;;;;;;;;;;4958500;29;20199;-86
2023/10/25 10:17:31;;;;;;;20.20;3.45;;;;;;;;;;4961435;29;20210;-84
2023/10/25 10:20:09;;;;;;;10.73;2.60;;;;;;;;;;4951252;29;20690;-84
2023/10/25 10:23:06;;;;;;;15.55;3.45;;;;;;;;;;4951213;29;20207;-87
2023/10/25 10:25:50;;;;;;;16.10;2.67;;;;;;;;;;4945736;28;20654;-83
2023/10/25 10:28:49;;;;;;;11.55;3.17;;;;;;;;;;4945125;28;20213;-86
2023/10/25 10:31:20;;;;;;;12.55;2.95;;;;;;;;;;4938476;28;20392;-85
2023/10/25 10:33:53;;;;;;;23.33;2.58;;;;;;;;;;4953355;29;20230;-85
2023/10/25 10:36:27;;;;;;;17.85;2.53;;;;;;;;;;4953265;29;20276;-84
2023/10/25 10:39:16;;;;;;;18.05;3.20;;;;;;;;;;4945326;29;20245;-85
2023/10/25 10:41:47;;;;;;;29.15;2.90;;;;;;;;;;4939230;28;20227;-83
2023/10/25 10:44:21;;;;;;;11.77;1.92;;;;;;;;;;4954707;28;20245;-84
2023/10/25 10:46:51;;;;;;;17.52;2.38;;;;;;;;;;4967274;23;20595;-84
2023/10/25 10:49:20;;;;;;;18.63;2.90;;;;;;;;;;4955596;29;20223;-85
2023/10/25 10:51:50;;;;;;;22.90;3.25;;;;;;;;;;4955610;28;20231;-86
2023/10/25 10:54:23;;;;;;;21.95;4.07;;;;;;;;;;4954675;28;20234;-86
2023/10/25 10:56:56;;;;;;;22.30;3.42;;;;;;;;;;4954271;29;20237;-86
2023/10/25 10:59:29;;;;;;;13.07;3.13;;;;;;;;;;4941610;29;20227;-86
2023/10/25 11:01:59;;;;;;;17.42;2.58;;;;;;;;;;4937754;29;20215;-85
2023/10/25 11:04:28;;;;;;;16.25;3.50;;;;;;;;;;4934287;29;20239;-86
2023/10/25 11:07:00;;;;;;;13.75;3.25;;;;;;;;;;4936488;29;20785;-86
2023/10/25 11:09:33;;;;;;;22.40;3.38;;;;;;;;;;4935602;28;20235;-86
2023/10/25 11:12:14;;;;;;;16.55;2.63;;;;;;;;;;4935528;29;20235;-87
2023/10/25 11:14:49;;;;;;;18.70;3.75;;;;;;;;;;4936094;29;20239;-86
2023/10/25 11:17:17;;;;;;;17.63;3.28;;;;;;;;;;4937592;28;20226;-85
2023/10/25 11:19:53;;;;;;;23.75;2.63;;;;;;;;;;4935570;28;20307;-87
2023/10/25 11:22:22;;;;;;;10.45;2.58;;;;;;;;;;4936769;29;20309;-85
2023/10/25 11:24:50;;;;;;;15.38;2.63;;;;;;;;;;4936107;28;20239;-86
2023/10/25 11:27:20;;;;;;;20.90;2.88;;;;;;;;;;4936463;29;20227;-86
2023/10/25 11:29:54;;;;;;;19.30;3.25;;;;;;;;;;4945038;28;20230;-85
2023/10/25 11:32:27;;;;;;;14.52;2.70;;;;;;;;;;4946026;29;20245;-85
2023/10/25 11:35:02;;;;;;;22.33;3.17;;;;;;;;;;4945003;28;20219;-86
2023/10/25 11:37:46;;;;;;;14.90;2.72;;;;;;;;;;4937444;29;20628;-86
2023/10/25 11:40:18;;;;;;;25.02;2.95;;;;;;;;;;4934802;28;20238;-85
2023/10/25 11:42:47;;;;;;;14.82;2.58;;;;;;;;;;4936693;29;20227;-85
2023/10/25 11:45:19;;;;;;;19.13;3.70;;;;;;;;;;4936224;29;20308;-84
2023/10/25 11:47:54;;;;;;;23.50;3.80;;;;;;;;;;4938626;29;20219;-86
2023/10/25 11:50:27;;;;;;;15.65;3.58;;;;;;;;;;4947334;28;20227;-85
2023/10/25 11:53:02;;;;;;;25.92;3.22;;;;;;;;;;4944973;28;20239;-85
2023/10/25 11:55:30;;;;;;;19.20;3.70;;;;;;;;;;4940831;29;20480;-85
2023/10/25 11:58:03;;;;;;;28.63;2.53;;;;;;;;;;4936580;29;20660;-83
2023/10/25 12:00:44;;;;;;;9.13;2.78;;;;;;;;;;4937176;29;20227;-86
2023/10/25 12:03:20;;;;;;;26.73;2.83;;;;;;;;;;4936981;29;20219;-86
2023/10/25 12:05:50;;;;;;;17.95;3.42;;;;;;;;;;4942974;29;20234;-83
2023/10/25 12:08:20;;;;;;;18.15;3.28;;;;;;;;;;4943686;29;20249;-83
2023/10/25 12:10:48;;;;;;;6.45;2.70;;;;;;;;;;4936914;29;20294;-85
2023/10/25 12:13:17;;;;;;;19.02;3.10;;;;;;;;;;4936522;29;20222;-85
2023/10/25 12:15:47;;;;;;;15.63;2.60;;;;;;;;;;4937543;29;20196;-85
2023/10/25 12:18:14;;;;;;;23.85;2.78;;;;;;;;;;4937379;29;20716;-86
2023/10/25 12:20:46;;;;;;;14.20;3.83;;;;;;;;;;4949448;29;20533;-86
2023/10/25 12:23:16;;;;;;;10.50;3.25;;;;;;;;;;4948770;28;20250;-85
2023/10/25 12:25:48;;;;;;;22.85;2.92;;;;;;;;;;4958336;28;20298;-85
2023/10/25 12:28:22;;;;;;;20.75;3.15;;;;;;;;;;4941334;29;20208;-84
2023/10/25 12:30:58;;;;;;;16.73;3.30;;;;;;;;;;4936012;29;20203;-85
2023/10/25 12:33:35;;;;;;;26.70;3.28;;;;;;;;;;4940544;29;20671;-85
2023/10/25 12:36:13;;;;;;;24.77;3.40;;;;;;;;;;4938677;29;20195;-86
2023/10/25 12:38:45;;;;;;;23.67;3.83;;;;;;;;;;4941271;29;20223;-87
2023/10/25 12:41:17;;;;;;;18.70;3.40;;;;;;;;;;4936653;29;20588;-87
2023/10/25 12:43:45;;;;;;;17.40;3.55;;;;;;;;;;4936051;29;20210;-85
2023/10/25 12:46:21;;;;;;;14.95;3.22;;;;;;;;;;4934938;29;20275;-85
2023/10/25 12:48:54;;;;;;;17.50;3.38;;;;;;;;;;4938171;29;20203;-86
2023/10/25 12:51:28;;;;;;;19.95;2.75;;;;;;;;;;4936643;29;20730;-84
2023/10/25 12:53:57;;;;;;;19.50;3.33;;;;;;;;;;4936019;29;20226;-85
2023/10/25 12:56:31;;;;;;;20.08;2.85;;;;;;;;;;4936666;29;20222;-85
2023/10/25 12:59:01;;;;;;;29.55;3.10;;;;;;;;;;4937306;29;20191;-86
2023/10/25 13:01:32;;;;;;;26.95;3.95;;;;;;;;;;4936502;29;20211;-84
2023/10/25 13:04:03;;;;;;;27.70;4.03;;;;;;;;;;4937082;29;20646;-85
2023/10/25 13:06:34;;;;;;;20.40;3.17;;;;;;;;;;4943416;29;20213;-87
2023/10/25 13:09:07;;;;;;;29.70;4.00;;;;;;;;;;4942891;29;20251;-87
2023/10/25 13:11:40;;;;;;;10.95;3.05;;;;;;;;;;4943720;29;20267;-85
2023/10/25 13:14:12;;;;;;;18.55;3.53;;;;;;;;;;4942387;29;20280;-86
2023/10/25 13:16:45;;;;;;;29.88;4.40;;;;;;;;;;4941067;29;20239;-85
2023/10/25 13:19:15;;;;;;;16.40;4.00;;;;;;;;;;4940887;29;20196;-86
2023/10/25 13:21:47;;;;;;;22.50;3.78;;;;;;;;;;4955322;29;20227;-85
2023/10/25 13:24:26;;;;;;;22.98;3.72;;;;;;;;;;4954444;29;20204;-85
2023/10/25 13:26:59;;;;;;;25.20;4.45;;;;;;;;;;4941106;29;20258;-86
2023/10/25 13:29:29;;;;;;;28.33;3.30;;;;;;;;;;4942689;29;20218;-86
2023/10/25 13:32:01;;;;;;;25.10;4.22;;;;;;;;;;4946832;29;20331;-84
2023/10/25 13:34:33;;;;;;;23.00;3.90;;;;;;;;;;4940171;29;20684;-85
2023/10/25 13:37:04;;;;;;;40.97;4.60;;;;;;;;;;4939006;29;20703;-85
2023/10/25 13:39:33;;;;;;;16.33;3.60;;;;;;;;;;4938406;29;20195;-86
2023/10/25 13:42:06;;;;;;;24.17;3.80;;;;;;;;;;4938310;29;20208;-85
2023/10/25 13:44:38;;;;;;;21.75;2.83;;;;;;;;;;4937908;29;20740;-85
2023/10/25 13:47:09;;;;;;;28.23;3.85;;;;;;;;;;4937579;29;20235;-86
2023/10/25 13:49:42;;;;;;;30.80;3.78;;;;;;;;;;4941423;29;20207;-86
2023/10/25 13:52:17;;;;;;;32.60;4.55;;;;;;;;;;4938104;29;20195;-88
2023/10/25 13:54:49;;;;;;;15.63;3.15;;;;;;;;;;4941078;29;20203;-83
2023/10/25 13:57:21;;;;;;;23.77;4.28;;;;;;;;;;4941800;29;20733;-85
2023/10/25 13:59:49;;;;;;;22.35;3.53;;;;;;;;;;4937096;29;20405;-85
2023/10/25 14:02:40;;;;;;;27.55;3.17;;;;;;;;;;4939519;29;20230;-85
2023/10/25 14:05:14;;;;;;;29.27;4.38;;;;;;;;;;4941160;29;20238;-85
2023/10/25 14:07:45;;;;;;;17.92;3.40;;;;;;;;;;4943259;29;20290;-86
2023/10/25 14:10:15;;;;;;;18.23;2.95;;;;;;;;;;4938563;29;20200;-83
2023/10/25 14:12:43;;;;;;;10.25;2.38;;;;;;;;;;4940238;29;20202;-84
2023/10/25 14:15:17;;;;;;;9.93;2.45;;;;;;;;;;4938826;29;20207;-84
2023/10/25 14:17:49;;;;;;;8.90;1.48;;;;;;;;;;4941439;29;20661;-85
2023/10/25 14:20:27;;;;;;;13.35;2.05;;;;;;;;;;4937822;29;20275;-85
2023/10/25 14:22:59;;;;;;;8.32;1.52;;;;;;;;;;4937890;29;20202;-84
2023/10/25 14:25:29;;;;;;;10.23;1.10;;;;;;;;;;4937906;29;20245;-85
2023/10/25 14:27:57;;;;;;;5.22;0.88;;;;;;;;;;4938506;29;20276;-84
2023/10/25 14:30:28;;;;;;;7.60;1.40;;;;;;;;;;4936968;29;20609;-87
2023/10/25 14:33:01;;;;;;;4.97;1.13;;;;;;;;;;4937575;29;20200;-85
2023/10/25 14:35:32;;;;;;;6.05;0.82;;;;;;;;;;4936933;29;20204;-84
2023/10/25 14:38:06;;;;;;;3.60;0.60;;;;;;;;;;4936460;29;20279;-85
2023/10/25 14:40:40;;;;;;;8.55;1.05;;;;;;;;;;4936688;29;20602;-87
2023/10/25 14:43:14;;;;;;;5.57;1.15;;;;;;;;;;4938894;29;20199;-85
2023/10/25 14:45:45;;;;;;;9.98;1.50;;;;;;;;;;4935926;29;20247;-85
2023/10/25 14:48:18;;;;;;;10.27;1.17;;;;;;;;;;4943801;29;20203;-84
2023/10/25 14:50:51;;;;;;;12.27;1.63;;;;;;;;;;4945553;28;20233;-82
2023/10/25 14:53:24;;;;;;;7.20;1.50;;;;;;;;;;4952600;28;20231;-84
2023/10/25 14:56:01;;;;;;;8.60;1.23;;;;;;;;;;5085760;23;20262;-83
2023/10/25 14:58:38;;;;;;;7.82;2.05;;;;;;;;;;4995237;28;20237;-84
2023/10/25 15:01:20;;;;;;;8.70;1.48;;;;;;;;;;5005643;28;20217;-83
2023/10/25 15:03:56;;;;;;;11.15;1.80;;;;;;;;;;4988876;28;20236;-83
2023/10/25 15:06:29;;;;;;;7.43;1.10;;;;;;;;;;4988471;28;20229;-83
2023/10/25 15:09:00;;;;;;;8.32;1.95;;;;;;;;;;4991105;28;20261;-85
2023/10/25 15:11:32;;;;;;;6.45;1.55;;;;;;;;;;4992240;28;20226;-85